This is the latest recevied weather packets stored in our database for station/object LRCT. If no packets are shown the sender has not sent any weather packets the latest 10 day(s).
| Time | Temp. | Humidity | Pressure | Rain* | Wind** | Luminosity | Snow |
|---|---|---|---|---|---|---|---|
| 1777975437 | 22.78° C | 29% | 1016 hPa | - | - | - | - |
| 1777974538 | 21.11° C | 33% | 1016 hPa | - | - | - | - |
| 1777973636 | 21.11° C | 33% | 1016 hPa | - | - | - | - |
| 1777972736 | 21.11° C | 33% | 1016 hPa | - | - | - | - |
| 1777971836 | 21.11° C | 33% | 1016 hPa | - | - | - | - |
| 1777970937 | 18.89° C | 43% | 1017 hPa | - | - | - | - |
| 1777970037 | 18.89° C | 43% | 1017 hPa | - | - | - | - |
| 1777969137 | 18.89° C | 43% | 1017 hPa | - | - | - | - |
| 1777968242 | 18.89° C | 43% | 1017 hPa | - | - | - | - |
| 1777966436 | 16.11° C | 52% | 1017 hPa | - | - | - | - |
| 1777965537 | 16.11° C | 52% | 1017 hPa | - | - | - | - |
| 1777964636 | 16.11° C | 52% | 1017 hPa | - | - | - | - |
| 1777963736 | 12.78° C | 59% | 1017 hPa | - | - | - | - |
| 1777962837 | 12.78° C | 59% | 1017 hPa | - | - | - | - |
| 1777961937 | 12.78° C | 59% | 1017 hPa | - | - | - | - |
| 1777961037 | 12.78° C | 59% | 1017 hPa | - | - | - | - |
| 1777960136 | 10° C | 67% | 1017 hPa | - | - | - | - |
| 1777959237 | 10° C | 67% | 1017 hPa | - | - | - | - |
| 1777958336 | 10° C | 67% | 1017 hPa | - | - | - | - |
| 1777957437 | 10° C | 67% | 1017 hPa | - | - | - | - |
| 1777956536 | 6.11° C | 76% | 1017 hPa | - | - | - | - |
| 1777955636 | 6.11° C | 76% | 1017 hPa | - | - | - | - |
| 1777954737 | 6.11° C | 76% | 1017 hPa | - | - | - | - |
| 1777953836 | 6.11° C | 76% | 1017 hPa | - | - | - | - |
| 1777943037 | 7.22° C | 76% | 1016 hPa | - | - | - | - |
* Rain since midnight (hover to see other rain measurements)
** Current wind speed in m/s (hover to see current wind gust speed)